Arnegard, North Dakota
Current Conditions -  °F | °C
As of 3:52 AM on Friday 31 Oct 2014 (Local Time) from KISN Reporting Station
Overcast Overcast  
Wind Chill: 18°   Ceiling: 1400
Heat Index: 29°   Visibility: 10mi
Dew Point: 23°   Wind: 15mph
Humidity: 78%   Direction: 160°SSE
Pressure: 30.42"   Gusts: 23mph
Location:  47.81°N, 103.44°W
Report Text: KISN 310852Z AUTO 16013G20KT 10SM OVC014 M02/M05 A3042 RMK AO2 SLP327 T10171050 58021
Loading
Personal Weather Stations






























Interactive Weather Map
Tropical Storm Tracking
New forecast layout! Learn more

10-Day Weather Forecast

Advertisements
Track Severe Weather on mobile